Gould City, Michigan
Current Conditions -  °F | °C
As of 3:14 AM on Sunday 26 Oct 2014 (Local Time) from KERY Reporting Station
Clear Clear  
Wind Chill: 37°   Ceiling: Unl
Heat Index: 44°   Visibility: 10mi
Dew Point: 34°   Wind: 13mph
Humidity: 68%   Direction: 310°NW
Pressure: 29.8"   Gusts: 20mph
Location:  46.1°N, 85.7°W
Report Text: KERY 260714Z AUTO 31011G17KT 10SM CLR 07/01 A2980 RMK AO2 T00650010
Loading
Personal Weather Stations






























Interactive Weather Map
Tropical Storm Tracking
New forecast layout! Learn more

10-Day Weather Forecast

Advertisements
Track Severe Weather on mobile